San Diego, California
Traffic Map
Current Weather Conditions
San Diego, California
Broken Clouds
Broken Clouds
64°
Feels Like: 64°
Wind Chill: 64° Ceiling: 1100
Heat Index: 64° Visibility: 10mi
Dew Point: 57° Wind: 0mph
Humidity: 77% Direction: ° ()
Pressure: 30.05in Gusts: 0mph
Raw Report DataKSAN 300415Z 00000KT 10SM BKN011 BKN200 18/14 A3005 RMK AO2
Traffic Incident Summary
Active as of:
Severity:
Category:
InformationThere was an issue retrieving the traffic information for this location. Please try a different location or try again shortly.
Advertisements
Track Severe Weather on mobile